Time;durP1;ratioP1;P1;durP2;ratioP2;P2;SDS_P1;SDS_P2;PMS_P1;PMS_P2;Temp;Humidity;BMP_temperature;BMP_pressure;BME280_temperature;BME280_humidity;BME280_pressure;Samples;Min_cycle;Max_cycle;Signal;HPM_P1;HPM_P2
2020/12/17 00:01:34;;;;;;;22.65;13.78;;;;;;;6.96;80.85;102160.14;1756780;81;21528;-78
2020/12/17 00:04:02;;;;;;;20.95;13.88;;;;;;;6.97;80.92;102159.31;1756802;81;21894;-78
2020/12/17 00:06:29;;;;;;;18.95;13.98;;;;;;;6.97;80.99;102155.80;1756737;81;21164;-78
2020/12/17 00:08:56;;;;;;;25.12;13.58;;;;;;;6.98;81.00;102153.66;1756722;81;21140;-78
2020/12/17 00:11:23;;;;;;;19.17;13.43;;;;;;;6.98;80.97;102153.66;1756863;80;21654;-79
2020/12/17 00:13:50;;;;;;;24.05;14.13;;;;;;;6.98;81.03;102156.28;1775243;80;21192;-76
2020/12/17 00:16:19;;;;;;;21.37;13.85;;;;;;;6.98;81.07;102155.90;1775094;80;21974;-78
2020/12/17 00:18:52;;;;;;;18.75;13.60;;;;;;;6.99;81.06;102148.94;1774608;80;21594;-77
2020/12/17 00:21:20;;;;;;;22.27;13.55;;;;;;;6.99;81.12;102152.45;1774948;80;21223;-78
2020/12/17 00:23:47;;;;;;;21.23;14.60;;;;;;;7.03;81.13;102151.34;1775048;80;21232;-77
2020/12/17 00:26:14;;;;;;;20.57;14.73;;;;;;;7.02;81.05;102155.69;1775026;80;21204;-77
2020/12/17 00:28:41;;;;;;;20.95;14.43;;;;;;;7.01;81.03;102158.69;1775074;80;22094;-78
2020/12/17 00:31:08;;;;;;;22.32;14.25;;;;;;;6.98;81.03;102165.06;1775028;80;21223;-78
2020/12/17 00:33:35;;;;;;;20.35;14.07;;;;;;;6.98;81.05;102166.75;1773279;80;21128;-78
2020/12/17 00:36:02;;;;;;;36.50;21.90;;;;;;;6.98;81.15;102168.98;1772569;80;21223;-78
2020/12/17 00:38:29;;;;;;;31.07;18.02;;;;;;;6.96;81.05;102164.06;1772547;80;21615;-78
2020/12/17 00:40:57;;;;;;;24.90;17.15;;;;;;;6.98;81.16;102174.22;1772669;80;21951;-79
2020/12/17 00:43:24;;;;;;;27.52;18.15;;;;;;;6.99;81.15;102169.47;1772422;80;21192;-79
2020/12/17 00:45:51;;;;;;;28.90;19.15;;;;;;;6.99;81.12;102172.50;1764837;80;21722;-79
2020/12/17 00:48:18;;;;;;;29.80;18.50;;;;;;;6.98;81.18;102179.84;1756408;81;21245;-79
2020/12/17 00:50:47;;;;;;;28.17;17.37;;;;;;;6.99;81.21;102181.66;1756574;81;21240;-79
2020/12/17 00:53:17;;;;;;;26.48;17.20;;;;;;;6.96;81.08;102181.08;1756438;81;22203;-79
2020/12/17 00:55:46;;;;;;;26.45;17.95;;;;;;;7.02;81.28;102185.80;1756456;81;21213;-79
2020/12/17 00:58:13;;;;;;;49.00;25.48;;;;;;;7.01;81.15;102187.48;1756344;81;21695;-78
2020/12/17 01:00:40;;;;;;;32.98;18.25;;;;;;;6.98;81.05;102186.00;1756495;81;21663;-79
2020/12/17 01:03:07;;;;;;;33.08;19.87;;;;;;;6.96;81.10;102188.94;1756353;81;21225;-79
2020/12/17 01:05:34;;;;;;;31.02;15.10;;;;;;;6.94;81.09;102182.67;1756436;80;21892;-78
2020/12/17 01:08:02;;;;;;;39.00;20.48;;;;;;;6.91;81.11;102189.04;1756295;81;21260;-78
2020/12/17 01:10:35;;;;;;;39.08;22.10;;;;;;;6.89;81.13;102184.11;1756259;81;21138;-78
2020/12/17 01:13:02;;;;;;;30.37;16.85;;;;;;;6.87;81.16;102180.50;1756384;81;21614;-79
2020/12/17 01:15:29;;;;;;;27.27;15.68;;;;;;;6.90;81.33;102185.91;1756445;81;21597;-79
2020/12/17 01:17:56;;;;;;;33.55;17.37;;;;;;;6.90;81.31;102186.32;1756397;81;21904;-78
2020/12/17 01:20:23;;;;;;;53.87;25.43;;;;;;;6.91;81.38;102192.97;1756313;81;21220;-79
2020/12/17 01:22:54;;;;;;;47.80;25.05;;;;;;;6.89;81.28;102193.28;1756285;81;21595;-78
2020/12/17 01:25:21;;;;;;;48.85;23.87;;;;;;;6.88;81.32;102186.63;1756502;81;21157;-78
2020/12/17 01:27:48;;;;;;;40.20;20.80;;;;;;;6.89;81.39;102186.73;1756505;81;21150;-78
2020/12/17 01:30:15;;;;;;;39.13;20.77;;;;;;;6.89;81.44;102185.42;1756333;81;22899;-78
2020/12/17 01:32:42;;;;;;;36.08;18.23;;;;;;;6.88;81.33;102178.37;1755694;81;21228;-78
2020/12/17 01:35:10;;;;;;;59.93;27.02;;;;;;;6.88;81.37;102186.63;1759340;81;21197;-79
2020/12/17 01:37:37;;;;;;;49.75;24.75;;;;;;;6.87;81.31;102183.50;1759414;81;21497;-79
2020/12/17 01:40:04;;;;;;;30.72;17.67;;;;;;;6.85;81.29;102178.57;1759639;81;21584;-79
2020/12/17 01:42:31;;;;;;;32.20;17.67;;;;;;;6.86;81.42;102179.09;1759569;81;21900;-78
2020/12/17 01:44:58;;;;;;;25.62;15.35;;;;;;;6.87;81.47;102180.50;1759345;81;21616;-78
2020/12/17 01:47:30;;;;;;;24.92;15.80;;;;;;;6.88;81.46;102179.67;1759707;81;21165;-78
2020/12/17 01:49:57;;;;;;;45.58;25.60;;;;;;;6.87;81.40;102180.50;1759546;81;21197;-78
2020/12/17 01:52:26;;;;;;;47.08;25.30;;;;;;;6.89;81.49;102177.57;1759835;81;21730;-78
2020/12/17 01:54:56;;;;;;;43.78;22.60;;;;;;;6.90;81.42;102175.85;1759830;81;21905;-78
2020/12/17 01:57:27;;;;;;;75.85;35.98;;;;;;;6.90;81.42;102170.61;1759568;81;21720;-79
2020/12/17 01:59:55;;;;;;;43.98;24.00;;;;;;;6.90;81.45;102174.54;1759671;81;21275;-79
2020/12/17 02:02:22;;;;;;;38.98;21.40;;;;;;;6.88;81.44;102169.62;1759522;81;21240;-79
2020/12/17 02:04:49;;;;;;;28.77;18.05;;;;;;;6.86;81.40;102170.83;1759906;81;21189;-78
2020/12/17 02:07:16;;;;;;;38.95;18.73;;;;;;;6.87;81.47;102174.34;1759850;81;21916;-78
2020/12/17 02:09:43;;;;;;;33.38;19.45;;;;;;;6.86;81.41;102169.92;1759603;81;21157;-79
2020/12/17 02:12:10;;;;;;;29.55;16.97;;;;;;;6.84;81.44;102174.16;1759524;81;21224;-79
2020/12/17 02:14:37;;;;;;;34.73;18.82;;;;;;;6.82;81.39;102172.75;1759796;81;21193;-79
2020/12/17 02:17:04;;;;;;;38.67;19.98;;;;;;;6.81;81.44;102177.09;1759737;81;21244;-79
2020/12/17 02:19:31;;;;;;;35.20;18.65;;;;;;;6.77;81.52;102167.21;1759559;81;22061;-78
2020/12/17 02:21:59;;;;;;;27.45;17.30;;;;;;;6.80;81.42;102178.30;1759570;81;21231;-79
2020/12/17 02:24:27;;;;;;;24.90;15.83;;;;;;;6.80;81.52;102179.19;1759614;81;21217;-79
2020/12/17 02:26:54;;;;;;;24.72;13.53;;;;;;;6.82;81.56;102179.30;1759643;81;21213;-79
2020/12/17 02:29:22;;;;;;;25.10;15.68;;;;;;;6.80;81.52;102170.03;1759508;81;21233;-79
2020/12/17 02:31:49;;;;;;;21.17;14.18;;;;;;;6.81;81.57;102171.86;1759470;81;21887;-79
2020/12/17 02:34:16;;;;;;;20.50;13.30;;;;;;;6.79;81.50;102173.48;1768869;80;21196;-79
2020/12/17 02:36:43;;;;;;;22.70;14.60;;;;;;;6.81;81.56;102178.41;1772756;80;21615;-79
2020/12/17 02:41:49;;;;;;;23.65;14.28;;;;;;;6.86;81.61;102170.83;1888226;76;23370;-78
2020/12/17 02:44:16;;;;;;;20.92;12.37;;;;;;;6.81;81.59;102171.86;1859146;77;21189;-78
2020/12/17 02:46:43;;;;;;;16.82;12.35;;;;;;;6.82;81.60;102167.52;1858982;77;21757;-79
2020/12/17 02:49:10;;;;;;;27.67;17.20;;;;;;;6.77;81.59;102154.54;1859154;77;21683;-78
2020/12/17 02:54:26;;;;;;;24.57;15.60;;;;;;;6.86;81.75;102156.42;1889014;76;22341;-79
2020/12/17 02:56:53;;;;;;;45.60;27.37;;;;;;;6.84;81.72;102159.77;1857020;77;21166;-79
2020/12/17 02:59:21;;;;;;;23.95;15.48;;;;;;;6.83;81.65;102157.53;1857204;77;22810;-77
2020/12/17 03:01:48;;;;;;;24.98;15.68;;;;;;;6.79;81.61;102148.61;1856835;77;21544;-78
2020/12/17 03:04:15;;;;;;;32.95;19.98;;;;;;;6.81;81.69;102153.54;1855116;76;21218;-78
2020/12/17 03:06:42;;;;;;;50.25;24.00;;;;;;;6.80;81.67;102146.89;1848500;76;21216;-78
2020/12/17 03:09:08;;;;;;;41.18;20.02;;;;;;;6.77;81.63;102152.81;1848677;77;21119;-78
2020/12/17 03:11:36;;;;;;;35.80;20.20;;;;;;;6.78;81.71;102149.41;1848580;76;21873;-78
2020/12/17 03:14:02;;;;;;;37.93;20.43;;;;;;;6.76;81.70;102144.48;1848513;76;21115;-77
2020/12/17 03:16:30;;;;;;;35.50;19.07;;;;;;;6.74;81.69;102148.72;1848553;76;21075;-77
2020/12/17 03:18:57;;;;;;;35.92;19.65;;;;;;;6.74;81.72;102152.64;1848411;77;21167;-78
2020/12/17 03:21:24;;;;;;;35.55;21.75;;;;;;;6.73;81.83;102154.75;1848192;76;21170;-79
2020/12/17 03:23:51;;;;;;;38.63;21.60;;;;;;;6.73;81.80;102151.23;1848236;76;22881;-79
2020/12/17 03:26:18;;;;;;;36.70;21.70;;;;;;;6.72;81.84;102152.95;1848236;76;21227;-79
2020/12/17 03:28:45;;;;;;;37.95;20.17;;;;;;;6.73;81.83;102147.31;1848295;76;21645;-79
2020/12/17 03:31:12;;;;;;;35.58;20.00;;;;;;;6.74;81.82;102148.72;1848246;76;21194;-79
2020/12/17 03:33:39;;;;;;;37.67;21.70;;;;;;;6.74;81.91;102150.03;1848153;77;21637;-79
2020/12/17 03:36:06;;;;;;;34.92;20.43;;;;;;;6.78;81.89;102140.66;1848170;77;21873;-80
2020/12/17 03:38:33;;;;;;;37.48;19.92;;;;;;;6.77;81.88;102150.20;1861821;76;21140;-79
2020/12/17 03:41:00;;;;;;;38.17;21.30;;;;;;;6.76;81.86;102140.56;1813876;78;21180;-80
2020/12/17 03:43:27;;;;;;;36.60;21.82;;;;;;;6.78;81.97;102140.25;1813742;79;21171;-79
2020/12/17 03:45:54;;;;;;;35.28;20.97;;;;;;;6.77;81.92;102142.77;1794300;78;21159;-79
2020/12/17 03:48:21;;;;;;;37.75;21.23;;;;;;;6.75;81.98;102143.08;1760166;80;21883;-79
2020/12/17 03:50:48;;;;;;;42.38;22.58;;;;;;;6.74;82.00;102140.87;1760230;81;21190;-79
2020/12/17 03:53:15;;;;;;;39.15;21.87;;;;;;;6.73;82.03;102147.31;1760340;81;21208;-79
2020/12/17 03:55:44;;;;;;;38.42;23.07;;;;;;;6.70;82.04;102136.64;1758898;81;21214;-78
2020/12/17 03:58:11;;;;;;;40.58;22.67;;;;;;;6.73;82.24;102138.16;1779374;79;21626;-79
2020/12/17 04:00:38;;;;;;;39.45;23.32;;;;;;;6.74;82.16;102137.36;1779444;80;22937;-79
2020/12/17 04:03:05;;;;;;;42.48;25.17;;;;;;;6.75;82.26;102130.88;1779284;79;21172;-79
2020/12/17 04:05:35;;;;;;;47.25;25.70;;;;;;;6.77;82.25;102128.37;1778883;80;21551;-80
2020/12/17 04:08:03;;;;;;;48.55;25.80;;;;;;;6.75;82.12;102135.22;1778928;80;21159;-80
2020/12/17 04:10:30;;;;;;;43.45;25.62;;;;;;;6.70;82.18;102136.26;1754913;80;21686;-80
2020/12/17 04:12:57;;;;;;;39.85;24.40;;;;;;;6.71;82.32;102135.84;1778932;79;21958;-81
2020/12/17 04:15:24;;;;;;;47.27;25.72;;;;;;;6.69;82.30;102135.74;1779073;80;21197;-80
2020/12/17 04:17:51;;;;;;;42.62;25.97;;;;;;;6.63;82.29;102134.06;1779008;79;21184;-77
2020/12/17 04:20:18;;;;;;;46.10;26.90;;;;;;;6.61;82.36;102141.80;1778986;79;21132;-81
2020/12/17 04:22:45;;;;;;;44.93;26.35;;;;;;;6.62;82.50;102138.77;1778926;79;21216;-82
2020/12/17 04:25:12;;;;;;;42.88;26.45;;;;;;;6.60;82.51;102136.05;1779250;79;21953;-81
2020/12/17 04:27:39;;;;;;;41.77;26.82;;;;;;;6.59;82.54;102134.67;1779074;79;21607;-81
2020/12/17 04:30:06;;;;;;;39.27;26.10;;;;;;;6.59;82.62;102137.30;1779016;79;21582;-81
2020/12/17 04:32:33;;;;;;;43.45;28.25;;;;;;;6.57;82.63;102130.65;1778991;79;21223;-81
2020/12/17 04:35:00;;;;;;;43.05;28.90;;;;;;;6.58;82.70;102139.39;1778851;79;21172;-81
2020/12/17 04:37:27;;;;;;;44.83;29.65;;;;;;;6.58;82.74;102138.98;1779091;80;22915;-81
2020/12/17 04:39:54;;;;;;;46.50;31.30;;;;;;;6.59;82.76;102129.03;1780932;78;21262;-82
2020/12/17 04:42:21;;;;;;;48.45;30.23;;;;;;;6.61;82.85;102130.03;1796618;77;21176;-81
2020/12/17 04:44:48;;;;;;;46.88;29.18;;;;;;;6.61;82.76;102125.21;1779954;77;21207;-82
2020/12/17 04:47:21;;;;;;;48.38;30.12;;;;;;;6.61;82.87;102124.80;1811032;78;21148;-81
2020/12/17 04:49:50;;;;;;;50.65;30.02;;;;;;;6.61;82.86;102127.41;1822728;78;21884;-80
2020/12/17 04:52:19;;;;;;;47.38;31.25;;;;;;;6.61;82.89;102127.83;1811112;79;21250;-80
2020/12/17 04:54:46;;;;;;;52.27;31.50;;;;;;;6.58;82.85;102131.55;1851212;77;21220;-81
2020/12/17 04:57:19;;;;;;;52.15;31.57;;;;;;;6.57;82.91;102132.38;1819023;78;21183;-80
2020/12/17 04:59:52;;;;;;;48.80;32.05;;;;;;;6.55;82.92;102132.27;1818834;78;21183;-80
2020/12/17 05:02:21;;;;;;;52.98;33.40;;;;;;;6.54;83.00;102138.70;1763067;78;21815;-80
2020/12/17 05:04:51;;;;;;;54.50;32.83;;;;;;;6.53;83.01;102131.65;1789132;80;21640;-79
2020/12/17 05:07:21;;;;;;;53.78;33.80;;;;;;;6.55;83.13;102140.49;1756494;81;21152;-81
2020/12/17 05:09:48;;;;;;;52.62;33.18;;;;;;;6.54;83.15;102138.30;1757914;80;21237;-80
2020/12/17 05:12:16;;;;;;;55.10;34.88;;;;;;;6.54;83.10;102142.22;1757864;80;21209;-79
2020/12/17 05:14:45;;;;;;;60.83;34.90;;;;;;;6.55;83.11;102136.19;1777487;80;21864;-79
2020/12/17 05:17:12;;;;;;;56.58;34.50;;;;;;;6.52;83.12;102134.67;1789888;79;21179;-81
2020/12/17 05:19:42;;;;;;;59.42;35.90;;;;;;;6.52;83.17;102126.83;1790170;80;21071;-81
2020/12/17 05:22:11;;;;;;;61.98;37.35;;;;;;;6.53;83.20;102124.73;1778817;77;21195;-81
2020/12/17 05:24:48;;;;;;;60.35;37.03;;;;;;;6.55;83.22;102113.95;1776695;79;21231;-80
2020/12/17 05:27:18;;;;;;;59.50;34.90;;;;;;;6.53;83.17;102113.34;1803341;78;21871;-81
2020/12/17 05:29:45;;;;;;;63.78;38.13;;;;;;;6.50;83.24;102110.55;1818600;78;21678;-80
2020/12/17 05:32:18;;;;;;;63.38;38.23;;;;;;;6.48;83.27;102107.83;1818499;77;21655;-80
2020/12/17 05:34:45;;;;;;;66.28;39.25;;;;;;;6.45;83.24;102106.73;1800618;78;21195;-81
2020/12/17 05:37:12;;;;;;;71.22;41.37;;;;;;;6.40;83.33;102104.73;1786293;79;21685;-77
2020/12/17 05:39:42;;;;;;;80.55;43.75;;;;;;;6.38;83.36;102111.58;1786183;79;22863;-80
2020/12/17 05:42:15;;;;;;;76.17;43.28;;;;;;;6.35;83.40;102111.37;1786387;79;21163;-83
2020/12/17 05:44:41;;;;;;;79.62;46.60;;;;;;;6.34;83.42;102121.31;1786249;78;21235;-79
2020/12/17 05:47:13;;;;;;;76.40;43.83;;;;;;;6.33;83.50;102118.22;1817527;77;21192;-81
2020/12/17 05:49:41;;;;;;;71.95;41.60;;;;;;;6.32;83.49;102115.08;1818588;78;21231;-76
2020/12/17 05:52:18;;;;;;;69.32;37.30;;;;;;;6.31;83.57;102113.30;1818620;77;22863;-76
2020/12/17 05:55:00;;;;;;;69.27;40.63;;;;;;;6.33;83.60;102119.52;1801468;77;21226;-77
2020/12/17 06:00:07;;;;;;;67.05;42.03;;;;;;;6.39;83.65;102117.70;1904518;74;22706;-78
2020/12/17 06:02:35;;;;;;;73.20;43.87;;;;;;;6.35;83.66;102125.75;1874370;75;21108;-77
2020/12/17 06:05:11;;;;;;;75.32;45.12;;;;;;;6.34;83.66;102120.00;1845497;75;21749;-76
2020/12/17 06:07:50;;;;;;;73.35;44.20;;;;;;;6.36;83.71;102134.12;1884936;75;21163;-77
2020/12/17 06:10:29;;;;;;;77.82;43.08;;;;;;;6.38;83.74;102132.88;1891841;75;21380;-77
2020/12/17 06:12:58;;;;;;;75.12;41.25;;;;;;;6.38;83.72;102127.65;1880102;75;21119;-77
2020/12/17 06:15:32;;;;;;;71.62;42.43;;;;;;;6.38;83.73;102128.95;1852121;75;21623;-77
2020/12/17 06:18:01;;;;;;;74.03;43.58;;;;;;;6.38;83.70;102137.73;1865357;75;22945;-78
2020/12/17 06:20:31;;;;;;;73.45;42.50;;;;;;;6.38;83.72;102132.88;1884953;75;21147;-77
2020/12/17 06:23:00;;;;;;;69.25;41.80;;;;;;;6.39;83.71;102133.40;1874414;75;21183;-78
2020/12/17 06:25:31;;;;;;;70.92;42.30;;;;;;;6.39;83.71;102133.40;1891359;75;21136;-77
2020/12/17 06:27:58;;;;;;;71.97;42.17;;;;;;;6.39;83.71;102129.06;1891795;75;21179;-76
2020/12/17 06:30:29;;;;;;;76.53;44.85;;;;;;;6.38;83.66;102127.65;1891780;75;22935;-76
2020/12/17 06:33:03;;;;;;;75.20;44.23;;;;;;;6.39;83.77;102129.06;1878385;75;21123;-76
2020/12/17 06:35:51;;;;;;;80.90;45.30;;;;;;;6.39;83.73;102125.55;1860122;75;21609;-77
2020/12/17 06:38:23;;;;;;;81.28;45.38;;;;;;;6.40;83.75;102126.03;1783175;80;21206;-77
2020/12/17 06:40:50;;;;;;;79.50;46.68;;;;;;;6.40;83.75;102124.73;1820077;77;21211;-76
2020/12/17 06:43:34;;;;;;;76.22;44.75;;;;;;;6.41;83.76;102126.14;1787480;80;22875;-76
2020/12/17 06:46:02;;;;;;;71.50;45.05;;;;;;;6.42;83.74;102121.84;1821449;78;21199;-77
2020/12/17 06:48:38;;;;;;;79.20;45.70;;;;;;;6.43;83.74;102122.31;1789225;80;21167;-77
2020/12/17 06:51:36;;;;;;;84.00;47.50;;;;;;;6.43;83.78;102121.01;1821547;78;21151;-78
2020/12/17 06:54:09;;;;;;;77.05;45.17;;;;;;;6.47;83.83;102129.55;1821545;78;21199;-77
2020/12/17 06:56:40;;;;;;;83.60;47.53;;;;;;;6.50;83.86;102121.02;1787576;80;21682;-78
2020/12/17 06:59:19;;;;;;;85.10;47.70;;;;;;;6.52;83.82;102125.52;1824225;78;21168;-76
2020/12/17 07:01:47;;;;;;;83.25;49.45;;;;;;;6.54;83.80;102124.31;1827451;78;21214;-77
2020/12/17 07:04:34;;;;;;;87.45;49.80;;;;;;;6.55;83.79;102127.03;1827490;77;21140;-77
2020/12/17 07:07:20;;;;;;;93.35;49.10;;;;;;;6.54;83.75;102123.91;1812085;78;21698;-76
2020/12/17 07:09:55;;;;;;;90.85;49.05;;;;;;;6.57;83.80;102127.14;1819262;77;21872;-78
2020/12/17 07:12:39;;;;;;;85.25;47.45;;;;;;;6.58;83.81;102132.44;1818930;78;21642;-78
2020/12/17 07:15:30;;;;;;;85.87;49.25;;;;;;;6.64;83.88;102132.34;1818758;77;21108;-77
2020/12/17 07:18:23;;;;;;;83.42;48.55;;;;;;;6.66;83.71;102128.10;1818976;78;21486;-77
2020/12/17 07:21:03;;;;;;;86.90;50.75;;;;;;;6.64;83.69;102123.18;1818895;78;21646;-77
2020/12/17 07:23:38;;;;;;;88.03;51.65;;;;;;;6.60;83.62;102127.31;1818807;78;21942;-75
2020/12/17 07:26:14;;;;;;;85.12;48.28;;;;;;;6.57;83.69;102125.83;1818799;77;21188;-75
2020/12/17 07:28:54;;;;;;;82.92;48.15;;;;;;;6.57;83.69;102119.30;1812838;77;21178;-84
2020/12/17 07:31:26;;;;;;;78.67;46.55;;;;;;;6.57;83.73;102115.37;1810232;77;21679;-85
2020/12/17 07:33:53;;;;;;;85.70;48.35;;;;;;;6.56;83.69;102119.67;1794826;78;21187;-80
2020/12/17 07:36:45;;;;;;;80.25;47.62;;;;;;;6.58;83.80;102121.08;1757471;80;21311;-80
2020/12/17 07:39:13;;;;;;;79.00;46.73;;;;;;;6.58;83.78;102118.05;1797061;78;21200;-81
2020/12/17 07:41:40;;;;;;;83.47;49.75;;;;;;;6.60;83.75;102120.77;1775984;78;21118;-80
2020/12/17 07:44:13;;;;;;;80.85;49.50;;;;;;;6.61;83.76;102119.98;1792986;78;21175;-81
2020/12/17 07:46:42;;;;;;;81.70;47.93;;;;;;;6.63;83.74;102118.36;1757336;78;21566;-80
2020/12/17 07:49:26;;;;;;;84.67;47.10;;;;;;;6.63;83.67;102119.67;1785480;78;21768;-78
2020/12/17 07:51:54;;;;;;;88.25;48.73;;;;;;;6.62;83.65;102124.38;1797534;79;21195;-78
2020/12/17 07:54:23;;;;;;;87.72;48.58;;;;;;;6.60;83.64;102117.73;1787146;78;21664;-81
2020/12/17 07:56:54;;;;;;;89.22;52.17;;;;;;;6.54;83.63;102104.28;1800954;78;21224;-80
2020/12/17 07:59:34;;;;;;;82.25;47.88;;;;;;;6.61;83.60;102113.44;1784402;78;21156;-82
2020/12/17 08:02:05;;;;;;;83.85;47.03;;;;;;;6.59;83.60;102110.72;1804339;79;21884;-77
2020/12/17 08:04:36;;;;;;;78.42;46.28;;;;;;;6.62;83.68;102112.61;1793794;78;21770;-79
2020/12/17 08:07:09;;;;;;;76.87;45.80;;;;;;;6.62;83.58;102115.23;1809755;78;21634;-78
2020/12/17 08:09:36;;;;;;;83.80;47.83;;;;;;;6.61;83.60;102110.41;1780137;78;21623;-78
2020/12/17 08:12:11;;;;;;;88.67;48.38;;;;;;;6.58;83.58;102107.59;1780981;79;21733;-80
2020/12/17 08:14:48;;;;;;;78.85;47.10;;;;;;;6.58;83.60;102111.52;1808687;78;21137;-82
2020/12/17 08:17:24;;;;;;;81.37;49.27;;;;;;;6.56;83.54;102113.12;1809551;79;21187;-80
2020/12/17 08:19:59;;;;;;;79.22;48.25;;;;;;;6.53;83.62;102110.72;1755349;78;21191;-78
2020/12/17 08:22:32;;;;;;;86.55;50.05;;;;;;;6.53;83.68;102115.58;1809548;79;21211;-79
2020/12/17 08:25:20;;;;;;;;;;;;;;;;;;;;;
2020/12/17 08:28:15;;;;;;;79.27;47.38;;;;;;;6.60;83.78;102114.23;1812180;77;23387;-77
2020/12/17 08:30:53;;;;;;;83.67;49.35;;;;;;;6.57;83.73;102114.95;1754209;80;21265;-80
2020/12/17 08:33:32;;;;;;;;;;;;;;;;;;;;;
2020/12/17 08:36:13;;;;;;;79.12;46.13;;;;;;;6.61;83.68;102106.48;1782225;79;23466;-77
2020/12/17 08:38:43;;;;;;;86.67;47.58;;;;;;;6.58;83.71;102110.62;1753835;81;21203;-77
2020/12/17 08:43:57;;;;;;;73.28;43.73;;;;;;;6.61;83.56;102097.33;1887169;75;24526;-77
2020/12/17 08:46:40;;;;;;;83.85;48.50;;;;;;;6.58;83.64;102101.05;1802111;78;22411;-74
2020/12/17 08:51:58;;;;;;;83.82;49.38;;;;;;;6.63;83.70;102090.89;1888484;75;23274;-78
2020/12/17 08:54:36;;;;;;;81.78;47.65;;;;;;;6.62;83.77;102095.60;1832038;77;21206;-80
2020/12/17 08:57:10;;;;;;;77.92;44.58;;;;;;;6.65;83.66;102100.15;1862034;76;22811;-78
2020/12/17 08:59:40;;;;;;;84.28;49.35;;;;;;;6.61;83.59;102093.41;1861753;77;21604;-78
2020/12/17 09:02:10;;;;;;;78.92;48.30;;;;;;;6.64;83.76;102094.40;1862068;77;21192;-77
2020/12/17 09:07:25;;;;;;;76.12;47.17;;;;;;;6.72;83.67;102096.70;1810137;78;21480;-79
2020/12/17 09:09:54;;;;;;;81.85;47.25;;;;;;;6.69;83.68;102096.91;1743987;81;21629;-76
2020/12/17 09:12:31;;;;;;;81.30;48.33;;;;;;;6.69;83.61;102101.73;1756373;81;21899;-79
2020/12/17 09:15:22;;;;;;;;;;;;;;;;;;;;;
2020/12/17 09:18:22;;;;;;;79.42;46.98;;;;;;;6.70;83.52;102093.08;1818076;76;24528;-77
2020/12/17 09:21:06;;;;;;;;;;;;;;;6.66;83.54;102094.98;1825694;77;21140;-77
2020/12/17 09:23:47;;;;;;;76.42;43.33;;;;;;;6.66;83.54;102086.23;1797400;77;20932;-78
2020/12/17 09:26:25;;;;;;;70.30;44.20;;;;;;;6.63;83.60;102084.76;1801331;77;21601;-80
2020/12/17 09:29:01;;;;;;;80.15;45.55;;;;;;;6.63;83.62;102079.53;1806981;77;21163;-82
2020/12/17 09:31:45;;;;;;;86.40;48.17;;;;;;;6.65;83.69;102074.88;1826362;77;21710;-79
2020/12/17 09:34:40;;;;;;;74.03;44.75;;;;;;;6.69;83.76;102086.44;1799116;77;21184;-79
2020/12/17 09:37:14;;;;;;;80.35;45.10;;;;;;;6.68;83.66;102082.93;1806484;78;21935;-79
2020/12/17 09:39:44;;;;;;;80.00;47.17;;;;;;;6.69;83.69;102086.03;1817440;78;21151;-79
2020/12/17 09:42:24;;;;;;;80.55;48.17;;;;;;;6.72;83.76;102083.61;1817462;78;21279;-79
2020/12/17 09:45:25;;;;;;;;;;;;;;;;;;;;;
2020/12/17 09:51:02;;;;;;;76.85;43.87;;;;;;;6.80;83.67;102082.77;1868755;76;23360;-78
2020/12/17 09:53:35;;;;;;;77.12;45.15;;;;;;;6.77;83.65;102091.31;1831128;78;21080;-79
2020/12/17 09:56:11;;;;;;;73.97;43.92;;;;;;;6.83;83.73;102080.33;1862318;76;22098;-77
2020/12/17 09:58:31;;;;;;;75.12;42.95;;;;;;;6.87;83.59;102082.73;1854414;76;21194;-80
2020/12/17 10:00:58;;;;;;;73.50;43.73;;;;;;;6.86;83.42;102077.02;1859812;77;21139;-79
2020/12/17 10:03:25;;;;;;;74.37;43.63;;;;;;;6.86;83.47;102077.91;1859768;77;21195;-79
2020/12/17 10:05:52;;;;;;;77.58;42.35;;;;;;;6.87;83.50;102078.42;1858505;76;21558;-79
2020/12/17 10:08:23;;;;;;;67.62;40.33;;;;;;;6.90;83.48;102069.42;1781478;79;21889;-80
2020/12/17 10:10:52;;;;;;;74.80;43.20;;;;;;;6.89;83.37;102071.94;1797605;79;21687;-80
2020/12/17 10:13:19;;;;;;;70.00;39.88;;;;;;;6.92;83.44;102062.98;1769425;79;21189;-81
2020/12/17 10:15:46;;;;;;;64.37;38.55;;;;;;;6.91;83.36;102058.58;1798105;79;21134;-77
2020/12/17 10:18:13;;;;;;;60.67;36.80;;;;;;;6.93;83.49;102060.87;1797993;79;21206;-81
2020/12/17 10:20:40;;;;;;;71.77;38.75;;;;;;;6.92;83.41;102062.56;1797886;79;21889;-78
2020/12/17 10:23:12;;;;;;;64.87;39.20;;;;;;;6.93;83.43;102056.95;1797971;79;21220;-79
2020/12/17 10:25:46;;;;;;;72.92;40.45;;;;;;;6.95;83.36;102060.14;1797988;79;21063;-77
2020/12/17 10:28:16;;;;;;;63.38;36.15;;;;;;;6.93;83.29;102051.72;1797770;79;27659;-79
2020/12/17 10:30:43;;;;;;;64.42;37.95;;;;;;;6.96;83.41;102050.57;1797807;79;21580;-79
2020/12/17 10:33:10;;;;;;;59.77;35.85;;;;;;;6.99;83.41;102050.36;1790244;79;21887;-77
2020/12/17 10:35:44;;;;;;;68.42;37.45;;;;;;;6.98;83.24;102047.26;1797713;79;21134;-79
2020/12/17 10:38:11;;;;;;;64.47;35.70;;;;;;;6.99;83.33;102046.84;1831282;78;21215;-84
2020/12/17 10:40:38;;;;;;;62.53;35.55;;;;;;;6.99;83.30;102046.84;1830731;78;21188;-80
2020/12/17 10:45:42;;;;;;;57.93;35.35;;;;;;;7.05;83.25;102048.52;1810136;78;20938;-76
2020/12/17 10:48:14;;;;;;;60.88;34.85;;;;;;;7.02;83.33;102043.11;1788001;79;21151;-77
2020/12/17 10:50:41;;;;;;;53.05;33.23;;;;;;;7.04;83.29;102046.72;1764602;81;21845;-79
2020/12/17 10:53:08;;;;;;;57.88;34.67;;;;;;;7.06;83.33;102045.09;1772827;79;21194;-77
2020/12/17 10:55:35;;;;;;;57.17;36.20;;;;;;;7.04;83.17;102042.80;1796580;79;21167;-76
2020/12/17 10:58:02;;;;;;;60.43;35.40;;;;;;;7.04;83.29;102041.48;1796680;79;21179;-79
2020/12/17 11:00:29;;;;;;;55.03;34.15;;;;;;;7.07;83.30;102040.34;1789014;79;21128;-86
2020/12/17 11:02:56;;;;;;;60.48;36.75;;;;;;;7.12;83.30;102039.33;1778970;79;21889;-81
2020/12/17 11:05:23;;;;;;;53.65;32.58;;;;;;;7.15;83.30;102032.55;1765052;79;21189;-75
2020/12/17 11:07:50;;;;;;;53.40;32.95;;;;;;;7.18;83.25;102027.48;1765021;80;21163;-78
2020/12/17 11:10:17;;;;;;;55.48;33.38;;;;;;;7.24;83.19;102034.80;1764571;81;21226;-80
2020/12/17 11:12:44;;;;;;;54.23;33.30;;;;;;;7.27;83.23;102023.20;1764569;81;21212;-80
2020/12/17 11:15:11;;;;;;;52.40;32.23;;;;;;;7.32;83.13;102027.39;1764450;81;21891;-78
2020/12/17 11:17:38;;;;;;;54.88;33.13;;;;;;;7.36;83.12;102026.78;1732924;82;21151;-78
2020/12/17 11:20:05;;;;;;;52.05;32.13;;;;;;;7.37;83.00;102024.64;1732994;82;21697;-79
2020/12/17 11:22:35;;;;;;;52.48;32.98;;;;;;;7.44;83.13;102018.05;1732963;82;21660;-79
2020/12/17 11:25:02;;;;;;;55.75;34.58;;;;;;;7.50;83.08;102015.78;1733123;82;21167;-79
2020/12/17 11:27:30;;;;;;;59.95;34.90;;;;;;;7.55;82.94;102009.09;1733101;82;21908;-78
2020/12/17 11:29:57;;;;;;;60.65;37.50;;;;;;;7.55;82.90;102006.06;1756132;80;21596;-79
2020/12/17 11:32:24;;;;;;;61.13;37.75;;;;;;;7.60;82.87;101997.13;1756562;80;21154;-76
2020/12/17 11:34:51;;;;;;;49.27;32.08;;;;;;;7.62;82.76;101998.53;1775556;80;21204;-77
2020/12/17 11:37:19;;;;;;;58.98;35.05;;;;;;;7.62;82.70;101999.47;1732470;82;21159;-79
2020/12/17 11:39:46;;;;;;;56.58;34.65;;;;;;;7.61;82.67;101992.41;1787311;80;21886;-79
2020/12/17 11:42:16;;;;;;;64.55;35.83;;;;;;;7.64;82.70;101990.35;1787781;80;21124;-84
2020/12/17 11:44:43;;;;;;;54.53;33.33;;;;;;;7.69;82.80;101983.66;1767902;79;21203;-76
2020/12/17 11:47:10;;;;;;;57.55;34.80;;;;;;;7.71;82.69;101978.98;1729398;82;21226;-76
2020/12/17 11:49:37;;;;;;;53.30;32.85;;;;;;;7.72;82.66;101982.13;1754790;80;21193;-76
2020/12/17 11:52:04;;;;;;;51.48;32.13;;;;;;;7.73;82.56;101973.45;1742153;82;21876;-76
2020/12/17 11:54:31;;;;;;;50.08;31.00;;;;;;;7.72;82.45;101973.36;1727552;83;21233;-80
2020/12/17 11:56:58;;;;;;;53.58;31.90;;;;;;;7.72;82.48;101979.91;1696251;83;21682;-79
2020/12/17 11:59:28;;;;;;;51.90;31.35;;;;;;;7.73;82.57;101971.22;1726251;81;21155;-79